sensor_id;sensor_type;location;lat;lon;timestamp;temperature;humidity
62573;DHT22;48626;51.678;5.806;2024-03-23T00:53:42;8.40;99.90
62573;DHT22;48626;51.678;5.806;2024-03-23T00:56:08;8.40;99.90
62573;DHT22;48626;51.678;5.806;2024-03-23T00:58:33;8.40;99.90
62573;DHT22;48626;51.678;5.806;2024-03-23T01:01:00;8.40;99.90
62573;DHT22;48626;51.678;5.806;2024-03-23T01:03:25;8.40;99.90
62573;DHT22;48626;51.678;5.806;2024-03-23T01:05:51;8.30;99.90
62573;DHT22;48626;51.678;5.806;2024-03-23T01:08:18;8.30;99.90
62573;DHT22;48626;51.678;5.806;2024-03-23T01:10:54;8.30;99.90
62573;DHT22;48626;51.678;5.806;2024-03-23T01:13:20;8.30;99.90
62573;DHT22;48626;51.678;5.806;2024-03-23T01:15:51;8.30;99.90
62573;DHT22;48626;51.678;5.806;2024-03-23T01:18:17;8.30;99.90
62573;DHT22;48626;51.678;5.806;2024-03-23T01:20:43;8.30;99.90
62573;DHT22;48626;51.678;5.806;2024-03-23T01:23:10;8.20;99.90
62573;DHT22;48626;51.678;5.806;2024-03-23T01:25:35;8.30;99.90
62573;DHT22;48626;51.678;5.806;2024-03-23T01:28:01;8.30;99.90
62573;DHT22;48626;51.678;5.806;2024-03-23T01:30:26;8.30;99.90
62573;DHT22;48626;51.678;5.806;2024-03-23T01:32:52;8.30;99.90
62573;DHT22;48626;51.678;5.806;2024-03-23T01:35:18;8.30;99.90
62573;DHT22;48626;51.678;5.806;2024-03-23T01:37:43;8.30;99.90
62573;DHT22;48626;51.678;5.806;2024-03-23T01:40:09;8.30;99.90
62573;DHT22;48626;51.678;5.806;2024-03-23T01:42:35;8.30;99.90
62573;DHT22;48626;51.678;5.806;2024-03-23T01:45:01;8.30;99.90
62573;DHT22;48626;51.678;5.806;2024-03-23T01:47:26;8.30;99.90
62573;DHT22;48626;51.678;5.806;2024-03-23T01:49:52;8.30;99.90
62573;DHT22;48626;51.678;5.806;2024-03-23T01:52:18;8.20;99.90
62573;DHT22;48626;51.678;5.806;2024-03-23T01:54:44;8.20;99.90
62573;DHT22;48626;51.678;5.806;2024-03-23T01:57:10;8.20;99.90
62573;DHT22;48626;51.678;5.806;2024-03-23T01:59:36;8.20;99.90
62573;DHT22;48626;51.678;5.806;2024-03-23T02:02:02;8.20;99.90
62573;DHT22;48626;51.678;5.806;2024-03-23T02:04:27;8.20;99.90
62573;DHT22;48626;51.678;5.806;2024-03-23T02:06:53;8.20;99.90
62573;DHT22;48626;51.678;5.806;2024-03-23T02:09:19;8.20;99.90
62573;DHT22;48626;51.678;5.806;2024-03-23T02:11:44;8.10;99.90
62573;DHT22;48626;51.678;5.806;2024-03-23T02:14:10;8.10;99.90
62573;DHT22;48626;51.678;5.806;2024-03-23T02:16:36;8.20;99.90
62573;DHT22;48626;51.678;5.806;2024-03-23T02:19:01;8.10;99.90
62573;DHT22;48626;51.678;5.806;2024-03-23T02:21:27;8.10;99.90
62573;DHT22;48626;51.678;5.806;2024-03-23T02:23:54;8.10;99.90
62573;DHT22;48626;51.678;5.806;2024-03-23T02:26:19;8.10;99.90
62573;DHT22;48626;51.678;5.806;2024-03-23T02:28:45;8.00;99.90
62573;DHT22;48626;51.678;5.806;2024-03-23T02:31:10;8.00;99.90
62573;DHT22;48626;51.678;5.806;2024-03-23T02:33:36;8.00;99.90
62573;DHT22;48626;51.678;5.806;2024-03-23T02:36:03;8.00;99.90
62573;DHT22;48626;51.678;5.806;2024-03-23T02:38:29;8.00;99.90
62573;DHT22;48626;51.678;5.806;2024-03-23T02:41:00;8.00;99.90
62573;DHT22;48626;51.678;5.806;2024-03-23T02:43:26;8.00;99.90
62573;DHT22;48626;51.678;5.806;2024-03-23T02:45:51;8.00;99.90
62573;DHT22;48626;51.678;5.806;2024-03-23T02:48:17;8.00;99.90
62573;DHT22;48626;51.678;5.806;2024-03-23T02:50:43;8.00;99.90
62573;DHT22;48626;51.678;5.806;2024-03-23T02:53:08;8.00;99.90
62573;DHT22;48626;51.678;5.806;2024-03-23T02:55:34;8.00;99.90
62573;DHT22;48626;51.678;5.806;2024-03-23T02:57:59;7.90;99.90
62573;DHT22;48626;51.678;5.806;2024-03-23T03:00:27;7.90;99.90
62573;DHT22;48626;51.678;5.806;2024-03-23T03:02:53;7.90;99.90
62573;DHT22;48626;51.678;5.806;2024-03-23T03:05:19;7.90;99.90
62573;DHT22;48626;51.678;5.806;2024-03-23T03:07:44;7.90;99.90
62573;DHT22;48626;51.678;5.806;2024-03-23T03:10:10;7.90;99.90
62573;DHT22;48626;51.678;5.806;2024-03-23T03:12:37;7.90;99.90
62573;DHT22;48626;51.678;5.806;2024-03-23T03:15:03;7.90;99.90
62573;DHT22;48626;51.678;5.806;2024-03-23T03:17:30;7.90;99.90
62573;DHT22;48626;51.678;5.806;2024-03-23T03:19:56;7.90;99.90
62573;DHT22;48626;51.678;5.806;2024-03-23T03:22:24;8.00;99.90
62573;DHT22;48626;51.678;5.806;2024-03-23T03:24:50;7.90;99.90
62573;DHT22;48626;51.678;5.806;2024-03-23T03:27:16;7.90;99.90
62573;DHT22;48626;51.678;5.806;2024-03-23T03:29:41;7.90;99.90
62573;DHT22;48626;51.678;5.806;2024-03-23T03:32:07;7.90;99.90
62573;DHT22;48626;51.678;5.806;2024-03-23T03:34:33;7.90;99.90
62573;DHT22;48626;51.678;5.806;2024-03-23T03:36:58;7.90;99.90
62573;DHT22;48626;51.678;5.806;2024-03-23T03:39:25;7.90;99.90
62573;DHT22;48626;51.678;5.806;2024-03-23T03:41:50;7.90;99.90
62573;DHT22;48626;51.678;5.806;2024-03-23T03:44:17;7.80;99.90
62573;DHT22;48626;51.678;5.806;2024-03-23T03:46:43;7.80;99.90
62573;DHT22;48626;51.678;5.806;2024-03-23T03:49:08;7.80;99.90
62573;DHT22;48626;51.678;5.806;2024-03-23T03:51:34;7.80;99.90
62573;DHT22;48626;51.678;5.806;2024-03-23T03:54:00;7.70;99.90
62573;DHT22;48626;51.678;5.806;2024-03-23T03:56:25;7.80;99.90
62573;DHT22;48626;51.678;5.806;2024-03-23T03:58:51;7.80;99.90
62573;DHT22;48626;51.678;5.806;2024-03-23T04:01:17;7.80;99.90
62573;DHT22;48626;51.678;5.806;2024-03-23T04:03:43;7.70;99.90
62573;DHT22;48626;51.678;5.806;2024-03-23T04:06:09;7.70;99.90
62573;DHT22;48626;51.678;5.806;2024-03-23T04:08:35;7.70;99.90
62573;DHT22;48626;51.678;5.806;2024-03-23T04:11:01;7.70;99.90
62573;DHT22;48626;51.678;5.806;2024-03-23T04:13:27;7.60;99.90
62573;DHT22;48626;51.678;5.806;2024-03-23T04:15:56;7.60;99.90
62573;DHT22;48626;51.678;5.806;2024-03-23T04:18:22;7.50;99.90
62573;DHT22;48626;51.678;5.806;2024-03-23T04:20:49;7.50;99.90
62573;DHT22;48626;51.678;5.806;2024-03-23T04:23:14;7.50;99.90
62573;DHT22;48626;51.678;5.806;2024-03-23T04:25:40;7.50;99.90
62573;DHT22;48626;51.678;5.806;2024-03-23T04:28:06;7.40;99.90
62573;DHT22;48626;51.678;5.806;2024-03-23T04:30:32;7.40;99.90
62573;DHT22;48626;51.678;5.806;2024-03-23T04:32:58;7.30;99.90
62573;DHT22;48626;51.678;5.806;2024-03-23T04:35:24;7.20;99.90
62573;DHT22;48626;51.678;5.806;2024-03-23T04:37:51;7.10;99.90
62573;DHT22;48626;51.678;5.806;2024-03-23T04:40:18;7.00;99.90
62573;DHT22;48626;51.678;5.806;2024-03-23T04:42:44;6.90;99.90
62573;DHT22;48626;51.678;5.806;2024-03-23T04:45:09;6.80;99.90
62573;DHT22;48626;51.678;5.806;2024-03-23T04:47:37;6.70;99.90
62573;DHT22;48626;51.678;5.806;2024-03-23T04:50:03;6.70;99.90
62573;DHT22;48626;51.678;5.806;2024-03-23T04:52:29;6.60;99.90
62573;DHT22;48626;51.678;5.806;2024-03-23T04:54:55;6.60;99.90
62573;DHT22;48626;51.678;5.806;2024-03-23T04:57:21;6.60;99.90
62573;DHT22;48626;51.678;5.806;2024-03-23T04:59:47;6.60;99.90
62573;DHT22;48626;51.678;5.806;2024-03-23T05:02:13;6.60;99.90
62573;DHT22;48626;51.678;5.806;2024-03-23T05:04:38;6.60;99.90
62573;DHT22;48626;51.678;5.806;2024-03-23T05:07:06;6.70;99.90
62573;DHT22;48626;51.678;5.806;2024-03-23T05:09:31;6.60;99.90
62573;DHT22;48626;51.678;5.806;2024-03-23T05:12:01;6.50;99.90
62573;DHT22;48626;51.678;5.806;2024-03-23T05:14:26;6.50;99.90
62573;DHT22;48626;51.678;5.806;2024-03-23T05:16:53;6.40;99.90
62573;DHT22;48626;51.678;5.806;2024-03-23T05:19:18;6.30;99.90
62573;DHT22;48626;51.678;5.806;2024-03-23T05:21:44;6.30;99.90
62573;DHT22;48626;51.678;5.806;2024-03-23T05:24:10;6.20;99.90
62573;DHT22;48626;51.678;5.806;2024-03-23T05:26:35;6.20;99.90
62573;DHT22;48626;51.678;5.806;2024-03-23T05:29:02;6.10;99.90
62573;DHT22;48626;51.678;5.806;2024-03-23T05:31:29;6.10;99.90
62573;DHT22;48626;51.678;5.806;2024-03-23T05:33:56;6.00;99.90
62573;DHT22;48626;51.678;5.806;2024-03-23T05:36:22;6.00;99.90
62573;DHT22;48626;51.678;5.806;2024-03-23T05:38:47;5.90;99.90
62573;DHT22;48626;51.678;5.806;2024-03-23T05:41:13;5.90;99.90
62573;DHT22;48626;51.678;5.806;2024-03-23T05:43:39;5.90;99.90
62573;DHT22;48626;51.678;5.806;2024-03-23T05:46:05;5.90;99.90
62573;DHT22;48626;51.678;5.806;2024-03-23T05:48:31;5.80;99.90
62573;DHT22;48626;51.678;5.806;2024-03-23T05:50:57;5.80;99.90
62573;DHT22;48626;51.678;5.806;2024-03-23T05:53:23;5.80;99.90
62573;DHT22;48626;51.678;5.806;2024-03-23T05:55:59;5.80;99.90
62573;DHT22;48626;51.678;5.806;2024-03-23T05:58:25;5.80;99.90
62573;DHT22;48626;51.678;5.806;2024-03-23T06:00:57;5.80;99.90
62573;DHT22;48626;51.678;5.806;2024-03-23T06:03:24;5.80;99.90
62573;DHT22;48626;51.678;5.806;2024-03-23T06:05:51;5.80;99.90
62573;DHT22;48626;51.678;5.806;2024-03-23T06:08:16;5.90;99.90
62573;DHT22;48626;51.678;5.806;2024-03-23T06:10:42;5.90;99.90
62573;DHT22;48626;51.678;5.806;2024-03-23T06:13:08;5.90;99.90
62573;DHT22;48626;51.678;5.806;2024-03-23T06:15:33;5.90;99.90
62573;DHT22;48626;51.678;5.806;2024-03-23T06:18:03;5.90;99.90
62573;DHT22;48626;51.678;5.806;2024-03-23T06:20:30;5.90;99.90
62573;DHT22;48626;51.678;5.806;2024-03-23T06:22:56;5.90;99.90
62573;DHT22;48626;51.678;5.806;2024-03-23T06:25:21;6.00;99.90
62573;DHT22;48626;51.678;5.806;2024-03-23T06:27:47;6.00;99.90
62573;DHT22;48626;51.678;5.806;2024-03-23T06:30:13;6.00;99.90
62573;DHT22;48626;51.678;5.806;2024-03-23T06:32:38;6.00;99.90
62573;DHT22;48626;51.678;5.806;2024-03-23T06:35:04;6.10;99.90
62573;DHT22;48626;51.678;5.806;2024-03-23T06:37:34;6.30;99.90
62573;DHT22;48626;51.678;5.806;2024-03-23T06:40:00;6.50;99.90
62573;DHT22;48626;51.678;5.806;2024-03-23T06:42:25;6.70;99.90
62573;DHT22;48626;51.678;5.806;2024-03-23T06:44:51;6.90;99.90
62573;DHT22;48626;51.678;5.806;2024-03-23T06:47:16;7.00;99.90
62573;DHT22;48626;51.678;5.806;2024-03-23T06:49:42;7.20;99.90
62573;DHT22;48626;51.678;5.806;2024-03-23T06:52:08;7.50;99.90
62573;DHT22;48626;51.678;5.806;2024-03-23T06:54:36;7.60;99.90
62573;DHT22;48626;51.678;5.806;2024-03-23T06:57:02;7.80;99.90
62573;DHT22;48626;51.678;5.806;2024-03-23T06:59:28;7.90;99.90
62573;DHT22;48626;51.678;5.806;2024-03-23T07:01:54;8.00;99.90
62573;DHT22;48626;51.678;5.806;2024-03-23T07:04:22;8.00;99.90
62573;DHT22;48626;51.678;5.806;2024-03-23T07:06:47;8.00;99.90
62573;DHT22;48626;51.678;5.806;2024-03-23T07:09:13;7.80;99.90
62573;DHT22;48626;51.678;5.806;2024-03-23T07:11:39;7.80;99.90
62573;DHT22;48626;51.678;5.806;2024-03-23T07:14:12;7.60;99.90
62573;DHT22;48626;51.678;5.806;2024-03-23T07:16:38;7.50;99.90
62573;DHT22;48626;51.678;5.806;2024-03-23T07:19:06;7.50;99.90
62573;DHT22;48626;51.678;5.806;2024-03-23T07:21:36;7.50;99.90
62573;DHT22;48626;51.678;5.806;2024-03-23T07:24:04;7.50;99.90
62573;DHT22;48626;51.678;5.806;2024-03-23T07:26:32;7.70;99.90
62573;DHT22;48626;51.678;5.806;2024-03-23T07:28:58;7.80;99.90
62573;DHT22;48626;51.678;5.806;2024-03-23T07:31:28;7.80;99.90
62573;DHT22;48626;51.678;5.806;2024-03-23T07:33:54;7.90;99.90
62573;DHT22;48626;51.678;5.806;2024-03-23T07:36:19;7.80;99.90
62573;DHT22;48626;51.678;5.806;2024-03-23T07:38:47;7.80;99.90
62573;DHT22;48626;51.678;5.806;2024-03-23T07:41:19;7.90;99.90
62573;DHT22;48626;51.678;5.806;2024-03-23T07:43:48;7.90;99.90
62573;DHT22;48626;51.678;5.806;2024-03-23T07:46:16;8.00;99.90
62573;DHT22;48626;51.678;5.806;2024-03-23T07:48:44;8.10;99.90
62573;DHT22;48626;51.678;5.806;2024-03-23T07:51:13;8.20;99.90
62573;DHT22;48626;51.678;5.806;2024-03-23T07:53:39;8.20;99.90
62573;DHT22;48626;51.678;5.806;2024-03-23T07:56:08;8.20;99.90
62573;DHT22;48626;51.678;5.806;2024-03-23T07:58:38;8.20;99.90
62573;DHT22;48626;51.678;5.806;2024-03-23T08:01:07;8.30;99.90
62573;DHT22;48626;51.678;5.806;2024-03-23T08:03:34;8.30;99.90
62573;DHT22;48626;51.678;5.806;2024-03-23T08:06:08;8.30;99.90
62573;DHT22;48626;51.678;5.806;2024-03-23T08:08:34;8.40;99.90
62573;DHT22;48626;51.678;5.806;2024-03-23T08:10:59;8.50;99.90
62573;DHT22;48626;51.678;5.806;2024-03-23T08:13:26;8.60;99.90
62573;DHT22;48626;51.678;5.806;2024-03-23T08:15:55;8.70;99.90
62573;DHT22;48626;51.678;5.806;2024-03-23T08:18:21;8.70;99.90
62573;DHT22;48626;51.678;5.806;2024-03-23T08:20:47;8.80;99.90
62573;DHT22;48626;51.678;5.806;2024-03-23T08:23:20;8.90;99.90
62573;DHT22;48626;51.678;5.806;2024-03-23T08:25:45;9.10;99.90
62573;DHT22;48626;51.678;5.806;2024-03-23T08:28:11;9.20;99.90
62573;DHT22;48626;51.678;5.806;2024-03-23T08:30:36;9.20;99.90
62573;DHT22;48626;51.678;5.806;2024-03-23T08:33:02;9.20;99.90
62573;DHT22;48626;51.678;5.806;2024-03-23T08:35:28;9.30;99.90
62573;DHT22;48626;51.678;5.806;2024-03-23T08:37:53;9.40;99.90
62573;DHT22;48626;51.678;5.806;2024-03-23T08:40:19;9.50;99.90
62573;DHT22;48626;51.678;5.806;2024-03-23T08:42:44;9.50;99.90
62573;DHT22;48626;51.678;5.806;2024-03-23T08:45:10;9.50;99.90
62573;DHT22;48626;51.678;5.806;2024-03-23T08:47:36;9.60;99.90
62573;DHT22;48626;51.678;5.806;2024-03-23T08:50:04;9.40;99.90
62573;DHT22;48626;51.678;5.806;2024-03-23T08:52:33;9.50;99.90
62573;DHT22;48626;51.678;5.806;2024-03-23T08:54:59;9.60;99.90
62573;DHT22;48626;51.678;5.806;2024-03-23T08:57:24;10.00;99.90
62573;DHT22;48626;51.678;5.806;2024-03-23T08:59:52;10.30;99.90
62573;DHT22;48626;51.678;5.806;2024-03-23T09:02:48;10.40;99.90
62573;DHT22;48626;51.678;5.806;2024-03-23T09:05:52;10.30;99.90
62573;DHT22;48626;51.678;5.806;2024-03-23T09:08:31;10.20;99.90
62573;DHT22;48626;51.678;5.806;2024-03-23T09:10:56;10.00;99.90
62573;DHT22;48626;51.678;5.806;2024-03-23T09:13:22;9.90;99.90
62573;DHT22;48626;51.678;5.806;2024-03-23T09:15:48;9.90;99.90
62573;DHT22;48626;51.678;5.806;2024-03-23T09:18:14;10.10;99.90
62573;DHT22;48626;51.678;5.806;2024-03-23T09:20:40;10.40;99.90
62573;DHT22;48626;51.678;5.806;2024-03-23T09:23:05;10.80;99.90
62573;DHT22;48626;51.678;5.806;2024-03-23T09:25:31;11.00;99.90
62573;DHT22;48626;51.678;5.806;2024-03-23T09:27:58;10.90;99.90
62573;DHT22;48626;51.678;5.806;2024-03-23T09:30:24;10.50;99.90
62573;DHT22;48626;51.678;5.806;2024-03-23T09:32:49;10.10;99.90
62573;DHT22;48626;51.678;5.806;2024-03-23T09:35:15;9.70;99.90
62573;DHT22;48626;51.678;5.806;2024-03-23T09:37:41;9.40;99.90
62573;DHT22;48626;51.678;5.806;2024-03-23T09:40:10;9.30;99.90
62573;DHT22;48626;51.678;5.806;2024-03-23T09:42:36;9.10;99.90
62573;DHT22;48626;51.678;5.806;2024-03-23T09:45:04;8.90;99.90
62573;DHT22;48626;51.678;5.806;2024-03-23T09:47:31;8.80;99.90
62573;DHT22;48626;51.678;5.806;2024-03-23T09:49:57;8.80;99.90
62573;DHT22;48626;51.678;5.806;2024-03-23T09:52:23;9.00;99.90
62573;DHT22;48626;51.678;5.806;2024-03-23T09:54:48;9.20;99.90
62573;DHT22;48626;51.678;5.806;2024-03-23T09:57:14;9.50;99.90
62573;DHT22;48626;51.678;5.806;2024-03-23T09:59:39;9.90;99.90
62573;DHT22;48626;51.678;5.806;2024-03-23T10:02:06;10.40;99.90
62573;DHT22;48626;51.678;5.806;2024-03-23T10:04:39;10.90;99.90
62573;DHT22;48626;51.678;5.806;2024-03-23T10:07:12;11.40;99.90
62573;DHT22;48626;51.678;5.806;2024-03-23T10:09:38;12.00;99.90
62573;DHT22;48626;51.678;5.806;2024-03-23T10:12:12;12.70;99.90
62573;DHT22;48626;51.678;5.806;2024-03-23T10:14:39;13.30;99.90
62573;DHT22;48626;51.678;5.806;2024-03-23T10:17:16;13.40;99.90
62573;DHT22;48626;51.678;5.806;2024-03-23T10:19:45;13.50;99.90
62573;DHT22;48626;51.678;5.806;2024-03-23T10:22:17;13.20;99.90
62573;DHT22;48626;51.678;5.806;2024-03-23T10:24:43;12.70;99.90
62573;DHT22;48626;51.678;5.806;2024-03-23T10:27:08;12.30;99.90
62573;DHT22;48626;51.678;5.806;2024-03-23T10:29:34;12.00;99.90
62573;DHT22;48626;51.678;5.806;2024-03-23T10:32:13;11.80;99.90
62573;DHT22;48626;51.678;5.806;2024-03-23T10:34:39;11.90;99.90
62573;DHT22;48626;51.678;5.806;2024-03-23T10:37:06;12.30;99.90
62573;DHT22;48626;51.678;5.806;2024-03-23T10:39:33;12.80;99.90
62573;DHT22;48626;51.678;5.806;2024-03-23T10:42:03;12.70;99.90
62573;DHT22;48626;51.678;5.806;2024-03-23T10:44:29;12.50;99.90
62573;DHT22;48626;51.678;5.806;2024-03-23T10:46:57;12.70;99.90
62573;DHT22;48626;51.678;5.806;2024-03-23T10:49:35;12.70;99.90
62573;DHT22;48626;51.678;5.806;2024-03-23T10:52:03;12.70;99.90
62573;DHT22;48626;51.678;5.806;2024-03-23T10:54:30;12.50;99.90
62573;DHT22;48626;51.678;5.806;2024-03-23T10:57:20;12.30;99.90
62573;DHT22;48626;51.678;5.806;2024-03-23T10:59:47;13.00;99.90
62573;DHT22;48626;51.678;5.806;2024-03-23T11:02:20;13.40;99.90
62573;DHT22;48626;51.678;5.806;2024-03-23T11:04:46;14.00;99.90
62573;DHT22;48626;51.678;5.806;2024-03-23T11:07:30;14.60;99.90
62573;DHT22;48626;51.678;5.806;2024-03-23T11:09:57;15.20;99.90
62573;DHT22;48626;51.678;5.806;2024-03-23T11:14:52;15.90;99.90
62573;DHT22;48626;51.678;5.806;2024-03-23T11:17:20;16.00;99.90
62573;DHT22;48626;51.678;5.806;2024-03-23T11:19:57;15.80;99.90
62573;DHT22;48626;51.678;5.806;2024-03-23T11:22:45;16.20;99.90
62573;DHT22;48626;51.678;5.806;2024-03-23T11:25:22;16.60;99.90
62573;DHT22;48626;51.678;5.806;2024-03-23T11:27:50;16.80;99.90
62573;DHT22;48626;51.678;5.806;2024-03-23T11:32:56;17.60;99.90
62573;DHT22;48626;51.678;5.806;2024-03-23T11:38:13;17.00;99.90
62573;DHT22;48626;51.678;5.806;2024-03-23T11:40:43;15.90;99.90
62573;DHT22;48626;51.678;5.806;2024-03-23T11:43:19;14.80;99.90
62573;DHT22;48626;51.678;5.806;2024-03-23T11:45:47;14.10;99.90
62573;DHT22;48626;51.678;5.806;2024-03-23T11:48:21;13.60;99.90
62573;DHT22;48626;51.678;5.806;2024-03-23T11:50:48;13.20;99.90
62573;DHT22;48626;51.678;5.806;2024-03-23T11:53:15;12.70;99.90
62573;DHT22;48626;51.678;5.806;2024-03-23T11:55:42;12.40;99.90
62573;DHT22;48626;51.678;5.806;2024-03-23T11:58:10;12.10;99.90
62573;DHT22;48626;51.678;5.806;2024-03-23T12:00:36;12.00;99.90
62573;DHT22;48626;51.678;5.806;2024-03-23T12:03:03;13.30;99.90
62573;DHT22;48626;51.678;5.806;2024-03-23T12:05:29;14.80;99.90
62573;DHT22;48626;51.678;5.806;2024-03-23T12:07:55;15.00;99.90
62573;DHT22;48626;51.678;5.806;2024-03-23T12:10:23;14.20;99.90
62573;DHT22;48626;51.678;5.806;2024-03-23T12:13:00;13.20;99.90
62573;DHT22;48626;51.678;5.806;2024-03-23T12:15:26;12.30;99.90
62573;DHT22;48626;51.678;5.806;2024-03-23T12:18:05;11.80;99.90
62573;DHT22;48626;51.678;5.806;2024-03-23T12:20:30;11.60;99.90
62573;DHT22;48626;51.678;5.806;2024-03-23T12:23:09;11.30;99.90
62573;DHT22;48626;51.678;5.806;2024-03-23T12:25:38;11.20;99.90
62573;DHT22;48626;51.678;5.806;2024-03-23T12:28:05;11.00;99.90
62573;DHT22;48626;51.678;5.806;2024-03-23T12:30:39;11.60;99.90
62573;DHT22;48626;51.678;5.806;2024-03-23T12:33:06;12.60;99.90
62573;DHT22;48626;51.678;5.806;2024-03-23T12:35:32;13.60;99.90
62573;DHT22;48626;51.678;5.806;2024-03-23T12:37:58;14.60;99.90
62573;DHT22;48626;51.678;5.806;2024-03-23T12:40:24;15.20;99.90
62573;DHT22;48626;51.678;5.806;2024-03-23T12:42:49;15.10;99.90
62573;DHT22;48626;51.678;5.806;2024-03-23T12:45:15;14.70;99.90
62573;DHT22;48626;51.678;5.806;2024-03-23T12:47:41;14.20;99.90
62573;DHT22;48626;51.678;5.806;2024-03-23T12:50:07;13.80;99.90
62573;DHT22;48626;51.678;5.806;2024-03-23T12:52:33;13.40;99.90
62573;DHT22;48626;51.678;5.806;2024-03-23T12:54:59;13.00;99.90
62573;DHT22;48626;51.678;5.806;2024-03-23T12:57:25;12.60;99.90
62573;DHT22;48626;51.678;5.806;2024-03-23T12:59:54;11.60;99.90
62573;DHT22;48626;51.678;5.806;2024-03-23T13:02:20;11.20;99.90
62573;DHT22;48626;51.678;5.806;2024-03-23T13:04:53;10.80;99.90
62573;DHT22;48626;51.678;5.806;2024-03-23T13:07:20;10.70;99.90
62573;DHT22;48626;51.678;5.806;2024-03-23T13:09:46;11.40;99.90
62573;DHT22;48626;51.678;5.806;2024-03-23T13:12:12;12.20;99.90
62573;DHT22;48626;51.678;5.806;2024-03-23T13:14:38;13.10;99.90
62573;DHT22;48626;51.678;5.806;2024-03-23T13:17:04;13.60;99.90
62573;DHT22;48626;51.678;5.806;2024-03-23T13:19:30;13.40;99.90
62573;DHT22;48626;51.678;5.806;2024-03-23T13:22:00;13.20;99.90
62573;DHT22;48626;51.678;5.806;2024-03-23T13:24:26;13.00;99.90
62573;DHT22;48626;51.678;5.806;2024-03-23T13:26:53;13.30;99.90
62573;DHT22;48626;51.678;5.806;2024-03-23T13:29:19;13.30;99.90
62573;DHT22;48626;51.678;5.806;2024-03-23T13:31:48;13.00;99.90
62573;DHT22;48626;51.678;5.806;2024-03-23T13:34:15;12.50;99.90
62573;DHT22;48626;51.678;5.806;2024-03-23T13:36:44;12.10;99.90
62573;DHT22;48626;51.678;5.806;2024-03-23T13:39:11;11.90;99.90
62573;DHT22;48626;51.678;5.806;2024-03-23T13:41:46;11.90;99.90
62573;DHT22;48626;51.678;5.806;2024-03-23T13:44:13;12.20;99.90
62573;DHT22;48626;51.678;5.806;2024-03-23T13:46:40;13.20;99.90
62573;DHT22;48626;51.678;5.806;2024-03-23T13:49:12;14.20;99.90
62573;DHT22;48626;51.678;5.806;2024-03-23T13:51:46;14.50;99.90
62573;DHT22;48626;51.678;5.806;2024-03-23T13:54:12;14.50;99.90
62573;DHT22;48626;51.678;5.806;2024-03-23T13:56:37;14.20;99.90
62573;DHT22;48626;51.678;5.806;2024-03-23T13:59:03;13.80;99.90
62573;DHT22;48626;51.678;5.806;2024-03-23T14:01:29;13.50;99.90
62573;DHT22;48626;51.678;5.806;2024-03-23T14:03:55;13.30;99.90
62573;DHT22;48626;51.678;5.806;2024-03-23T14:06:21;12.90;99.90
62573;DHT22;48626;51.678;5.806;2024-03-23T14:08:49;12.50;99.90
62573;DHT22;48626;51.678;5.806;2024-03-23T14:11:18;12.20;99.90
62573;DHT22;48626;51.678;5.806;2024-03-23T14:13:44;12.00;99.90
62573;DHT22;48626;51.678;5.806;2024-03-23T14:16:10;11.80;99.90
62573;DHT22;48626;51.678;5.806;2024-03-23T14:18:35;11.60;99.90
62573;DHT22;48626;51.678;5.806;2024-03-23T14:21:02;11.70;99.90
62573;DHT22;48626;51.678;5.806;2024-03-23T14:23:29;11.80;99.90
62573;DHT22;48626;51.678;5.806;2024-03-23T14:25:59;11.70;99.90
62573;DHT22;48626;51.678;5.806;2024-03-23T14:28:25;11.80;99.90
62573;DHT22;48626;51.678;5.806;2024-03-23T14:30:51;11.80;99.90
62573;DHT22;48626;51.678;5.806;2024-03-23T14:33:17;11.60;99.90
62573;DHT22;48626;51.678;5.806;2024-03-23T14:35:43;11.40;99.90
62573;DHT22;48626;51.678;5.806;2024-03-23T14:38:09;11.40;99.90
62573;DHT22;48626;51.678;5.806;2024-03-23T14:40:35;11.50;99.90
62573;DHT22;48626;51.678;5.806;2024-03-23T14:43:01;11.50;99.90
62573;DHT22;48626;51.678;5.806;2024-03-23T14:45:28;11.30;99.90
62573;DHT22;48626;51.678;5.806;2024-03-23T14:47:53;11.20;99.90
62573;DHT22;48626;51.678;5.806;2024-03-23T14:50:19;11.20;99.90
62573;DHT22;48626;51.678;5.806;2024-03-23T14:52:48;11.10;99.90
62573;DHT22;48626;51.678;5.806;2024-03-23T14:55:13;11.00;99.90
62573;DHT22;48626;51.678;5.806;2024-03-23T14:57:39;10.90;99.90
62573;DHT22;48626;51.678;5.806;2024-03-23T15:00:07;10.80;99.90
62573;DHT22;48626;51.678;5.806;2024-03-23T15:02:33;10.70;99.90
62573;DHT22;48626;51.678;5.806;2024-03-23T15:05:00;10.60;99.90
62573;DHT22;48626;51.678;5.806;2024-03-23T15:07:26;10.70;99.90
62573;DHT22;48626;51.678;5.806;2024-03-23T15:09:52;10.70;99.90
62573;DHT22;48626;51.678;5.806;2024-03-23T15:12:19;10.70;99.90
62573;DHT22;48626;51.678;5.806;2024-03-23T15:14:44;10.60;99.90
62573;DHT22;48626;51.678;5.806;2024-03-23T15:17:11;10.50;99.90
62573;DHT22;48626;51.678;5.806;2024-03-23T15:19:37;10.40;99.90
62573;DHT22;48626;51.678;5.806;2024-03-23T15:22:02;10.40;99.90
62573;DHT22;48626;51.678;5.806;2024-03-23T15:24:29;10.30;99.90
62573;DHT22;48626;51.678;5.806;2024-03-23T15:26:54;10.10;99.90
62573;DHT22;48626;51.678;5.806;2024-03-23T15:29:21;9.80;99.90
62573;DHT22;48626;51.678;5.806;2024-03-23T15:31:48;9.40;99.90
62573;DHT22;48626;51.678;5.806;2024-03-23T15:34:18;9.30;99.90
62573;DHT22;48626;51.678;5.806;2024-03-23T15:36:44;9.20;99.90
62573;DHT22;48626;51.678;5.806;2024-03-23T15:39:10;9.20;99.90
62573;DHT22;48626;51.678;5.806;2024-03-23T15:41:36;9.30;99.90
62573;DHT22;48626;51.678;5.806;2024-03-23T15:44:02;9.40;99.90
62573;DHT22;48626;51.678;5.806;2024-03-23T15:46:28;9.40;99.90
62573;DHT22;48626;51.678;5.806;2024-03-23T15:48:54;9.50;99.90
62573;DHT22;48626;51.678;5.806;2024-03-23T15:51:20;9.50;99.90
62573;DHT22;48626;51.678;5.806;2024-03-23T15:53:46;9.50;99.90
62573;DHT22;48626;51.678;5.806;2024-03-23T15:56:12;9.50;99.90
62573;DHT22;48626;51.678;5.806;2024-03-23T15:58:38;9.40;99.90
62573;DHT22;48626;51.678;5.806;2024-03-23T16:01:06;9.40;99.90
62573;DHT22;48626;51.678;5.806;2024-03-23T16:03:32;9.40;99.90
62573;DHT22;48626;51.678;5.806;2024-03-23T16:06:00;9.40;99.90
62573;DHT22;48626;51.678;5.806;2024-03-23T16:08:26;9.40;99.90
62573;DHT22;48626;51.678;5.806;2024-03-23T16:10:52;9.30;99.90
62573;DHT22;48626;51.678;5.806;2024-03-23T16:13:20;9.20;99.90
62573;DHT22;48626;51.678;5.806;2024-03-23T16:15:54;9.20;99.90
62573;DHT22;48626;51.678;5.806;2024-03-23T16:18:20;9.10;99.90
62573;DHT22;48626;51.678;5.806;2024-03-23T16:20:56;9.10;99.90
62573;DHT22;48626;51.678;5.806;2024-03-23T16:23:22;9.00;99.90
62573;DHT22;48626;51.678;5.806;2024-03-23T16:25:52;9.00;99.90
62573;DHT22;48626;51.678;5.806;2024-03-23T16:28:29;9.00;99.90
62573;DHT22;48626;51.678;5.806;2024-03-23T16:30:56;8.90;99.90
62573;DHT22;48626;51.678;5.806;2024-03-23T16:33:22;8.90;99.90
62573;DHT22;48626;51.678;5.806;2024-03-23T16:35:57;8.90;99.90
62573;DHT22;48626;51.678;5.806;2024-03-23T16:38:23;8.80;99.90
62573;DHT22;48626;51.678;5.806;2024-03-23T16:40:59;8.70;99.90